Time;durP1;ratioP1;P1;durP2;ratioP2;P2;SDS_P1;SDS_P2;PMS_P1;PMS_P2;Temp;Humidity;BMP_temperature;BMP_pressure;BME280_temperature;BME280_humidity;BME280_pressure;Samples;Min_cycle;Max_cycle;Signal;HPM_P1;HPM_P2
2021/12/10 00:00:58;;;;;;;40.88;26.10;;;4.50;99.90;;;;;;5060674;28;20525;-82
2021/12/10 00:03:39;;;;;;;30.85;21.98;;;4.40;99.90;;;;;;5080196;28;20078;-84
2021/12/10 00:06:13;;;;;;;41.72;23.70;;;4.40;99.90;;;;;;5078075;28;20051;-84
2021/12/10 00:08:43;;;;;;;39.20;21.85;;;4.30;99.90;;;;;;5090166;28;20428;-84
2021/12/10 00:11:16;;;;;;;32.53;22.88;;;4.40;99.90;;;;;;5073608;28;20078;-84
2021/12/10 00:13:45;;;;;;;36.33;20.98;;;4.40;99.90;;;;;;5085041;28;20506;-84
2021/12/10 00:16:13;;;;;;;38.30;21.73;;;4.40;99.90;;;;;;5091967;28;20044;-83
2021/12/10 00:18:45;;;;;;;35.05;22.52;;;4.50;99.90;;;;;;5087200;28;20028;-84
2021/12/10 00:21:11;;;;;;;39.95;22.83;;;4.50;99.90;;;;;;5063729;28;20096;-83
2021/12/10 00:23:36;;;;;;;38.60;24.33;;;4.50;99.90;;;;;;5081645;28;20131;-82
2021/12/10 00:26:04;;;;;;;35.15;23.80;;;4.50;99.90;;;;;;5062437;28;20130;-83
2021/12/10 00:28:38;;;;;;;43.85;25.33;;;4.50;99.90;;;;;;5071129;28;20040;-86
2021/12/10 00:31:43;;;;;;;50.22;25.92;;;4.50;99.90;;;;;;5092123;28;20093;-84
2021/12/10 00:34:32;;;;;;;47.03;25.73;;;4.60;99.90;;;;;;5085957;28;20444;-84
2021/12/10 00:37:02;;;;;;;36.47;21.33;;;4.60;99.90;;;;;;5088943;28;20140;-84
2021/12/10 00:39:33;;;;;;;45.15;20.73;;;4.60;99.90;;;;;;5069659;28;20410;-84
2021/12/10 00:42:01;;;;;;;32.72;20.88;;;4.50;99.90;;;;;;5072172;28;20060;-85
2021/12/10 00:44:27;;;;;;;39.53;21.08;;;4.50;99.90;;;;;;5086650;28;20048;-85
2021/12/10 00:46:53;;;;;;;35.50;22.75;;;4.50;99.90;;;;;;5072785;28;20040;-83
2021/12/10 00:49:19;;;;;;;30.33;21.23;;;4.60;99.90;;;;;;5087675;28;20393;-84
2021/12/10 00:51:45;;;;;;;39.83;23.17;;;4.50;99.90;;;;;;5083218;28;20120;-85
2021/12/10 00:54:12;;;;;;;38.70;22.50;;;4.50;99.90;;;;;;5087368;28;20464;-83
2021/12/10 00:56:41;;;;;;;53.67;21.98;;;4.60;99.90;;;;;;5088555;28;20079;-83
2021/12/10 00:59:08;;;;;;;29.17;20.75;;;4.50;99.90;;;;;;5088430;28;20040;-84
2021/12/10 01:01:34;;;;;;;31.67;20.45;;;4.50;99.90;;;;;;5072135;28;20055;-82
2021/12/10 01:04:10;;;;;;;39.13;23.08;;;4.50;99.90;;;;;;5089502;28;20040;-84
2021/12/10 01:06:39;;;;;;;39.90;23.35;;;4.60;99.90;;;;;;5068943;28;20045;-83
2021/12/10 01:09:09;;;;;;;37.67;21.90;;;4.60;99.90;;;;;;5074653;28;20067;-84
2021/12/10 01:11:40;;;;;;;45.25;22.75;;;4.50;99.90;;;;;;5068905;28;20048;-83
2021/12/10 01:14:21;;;;;;;47.05;22.70;;;4.60;99.90;;;;;;5079611;28;20057;-83
2021/12/10 01:25:23;;;;;;;38.53;23.20;;;4.40;99.90;;;;;;5076033;28;20036;-83
2021/12/10 01:27:49;;;;;;;38.47;21.15;;;4.40;99.90;;;;;;5091635;28;20444;-84
2021/12/10 01:30:21;;;;;;;50.00;19.40;;;4.30;99.90;;;;;;5080829;28;20036;-77
2021/12/10 01:32:51;;;;;;;30.52;20.23;;;4.20;99.90;;;;;;5064584;28;20052;-83
2021/12/10 01:35:18;;;;;;;;;;;4.10;99.90;;;;;;5075733;28;20505;-84
2021/12/10 01:37:44;;;;;;;43.85;22.13;;;4.10;99.90;;;;;;5086192;28;20386;-85
2021/12/10 01:40:11;;;;;;;46.38;21.10;;;4.10;99.90;;;;;;5060000;28;20048;-82
2021/12/10 01:42:44;;;;;;;39.28;21.40;;;4.00;99.90;;;;;;5070934;28;20379;-83
2021/12/10 01:45:21;;;;;;;34.95;17.38;;;4.10;99.90;;;;;;5073332;28;20051;-82
2021/12/10 01:47:56;;;;;;;32.25;18.00;;;4.00;99.90;;;;;;5087356;28;20123;-81
2021/12/10 01:50:23;;;;;;;31.15;17.27;;;4.10;99.90;;;;;;5090759;28;20402;-81
2021/12/10 01:53:08;;;;;;;40.83;19.73;;;4.00;99.90;;;;;;5075095;28;20048;-82
2021/12/10 01:55:37;;;;;;;31.70;17.85;;;4.10;99.90;;;;;;5076172;28;20050;-83
2021/12/10 01:58:04;;;;;;;28.60;19.58;;;4.00;99.90;;;;;;5075165;28;20040;-83
2021/12/10 02:00:33;;;;;;;34.88;19.23;;;4.10;99.90;;;;;;5070836;28;20051;-84
2021/12/10 02:02:59;;;;;;;28.05;16.85;;;4.10;99.90;;;;;;5077435;28;20044;-83
2021/12/10 02:05:26;;;;;;;29.48;17.05;;;4.10;99.90;;;;;;5078308;28;20429;-81
2021/12/10 02:07:53;;;;;;;29.15;16.92;;;4.20;99.90;;;;;;5078094;28;20040;-83
2021/12/10 02:10:20;;;;;;;39.22;18.73;;;4.10;99.90;;;;;;5083240;28;20081;-83
2021/12/10 02:12:47;;;;;;;34.88;16.48;;;4.10;99.90;;;;;;5090319;28;20063;-83
2021/12/10 02:15:14;;;;;;;37.50;17.77;;;4.20;99.90;;;;;;5062753;28;20052;-74
2021/12/10 02:17:44;;;;;;;18.38;13.02;;;4.20;99.90;;;;;;5070837;28;20052;-82
2021/12/10 02:20:20;;;;;;;24.40;13.85;;;4.20;99.90;;;;;;5086005;28;20059;-82
2021/12/10 02:22:48;;;;;;;32.90;13.43;;;4.20;99.90;;;;;;5059906;28;20189;-78
2021/12/10 02:25:17;;;;;;;20.92;12.60;;;4.20;99.90;;;;;;5076143;28;20055;-79
2021/12/10 02:27:42;;;;;;;27.05;12.40;;;4.30;99.90;;;;;;5060113;28;20044;-79
2021/12/10 02:30:11;;;;;;;27.58;15.10;;;4.20;99.90;;;;;;5084557;28;20055;-81
2021/12/10 02:32:37;;;;;;;27.60;14.15;;;4.20;99.90;;;;;;5082466;28;20040;-83
2021/12/10 02:35:06;;;;;;;25.67;14.57;;;4.30;99.90;;;;;;5088994;28;20105;-81
2021/12/10 02:37:31;;;;;;;23.80;15.38;;;4.10;99.90;;;;;;5082453;28;20036;-82
2021/12/10 02:39:57;;;;;;;32.25;15.65;;;4.20;99.90;;;;;;5084240;28;20050;-82
2021/12/10 02:42:23;;;;;;;37.80;16.83;;;4.30;99.90;;;;;;5071522;28;20040;-84
2021/12/10 02:44:48;;;;;;;30.25;16.70;;;4.20;99.90;;;;;;5071680;28;20120;-84
2021/12/10 02:47:16;;;;;;;32.67;14.27;;;4.20;99.90;;;;;;5076026;28;20044;-81
2021/12/10 02:49:42;;;;;;;30.08;14.50;;;4.20;99.90;;;;;;5074694;28;20124;-84
2021/12/10 02:52:10;;;;;;;31.50;15.98;;;4.30;99.90;;;;;;5089916;28;20090;-83
2021/12/10 02:54:36;;;;;;;30.95;15.05;;;4.30;99.90;;;;;;5087566;28;20156;-82
2021/12/10 02:57:14;;;;;;;37.70;14.73;;;4.30;99.90;;;;;;5074693;28;20032;-83
2021/12/10 02:59:40;;;;;;;36.30;16.38;;;4.30;99.90;;;;;;5055582;28;20498;-83
2021/12/10 03:02:11;;;;;;;25.58;14.30;;;4.30;99.90;;;;;;5081215;28;20040;-83
2021/12/10 03:04:37;;;;;;;31.02;16.73;;;4.20;99.90;;;;;;5084965;28;20045;-82
2021/12/10 03:07:11;;;;;;;35.47;15.65;;;4.30;99.90;;;;;;5088104;28;20459;-83
2021/12/10 03:09:38;;;;;;;31.30;15.93;;;4.20;99.90;;;;;;5087274;28;20056;-83
2021/12/10 03:12:05;;;;;;;28.58;18.15;;;4.30;99.90;;;;;;5077668;28;20032;-82
2021/12/10 03:14:35;;;;;;;27.90;15.25;;;4.30;99.90;;;;;;5084321;28;20385;-82
2021/12/10 03:17:07;;;;;;;20.77;13.80;;;4.30;99.90;;;;;;5085069;28;20044;-84
2021/12/10 03:19:33;;;;;;;29.05;14.55;;;4.20;99.90;;;;;;5076666;28;20047;-83
2021/12/10 03:21:59;;;;;;;28.92;14.90;;;4.30;99.90;;;;;;5066317;28;20460;-83
2021/12/10 03:24:27;;;;;;;21.38;14.02;;;4.20;99.90;;;;;;5070063;28;20125;-84
2021/12/10 03:26:54;;;;;;;27.90;13.98;;;4.20;99.90;;;;;;5065030;28;20040;-82
2021/12/10 03:29:22;;;;;;;27.38;14.18;;;4.20;99.90;;;;;;5080147;28;20036;-83
2021/12/10 03:31:50;;;;;;;24.20;14.60;;;4.20;99.90;;;;;;5071329;28;20036;-82
2021/12/10 03:34:16;;;;;;;26.98;12.93;;;4.20;99.90;;;;;;5074781;28;20504;-82
2021/12/10 03:36:45;;;;;;;20.27;12.45;;;4.20;99.90;;;;;;5055012;28;20119;-83
2021/12/10 03:39:15;;;;;;;23.52;13.43;;;4.10;99.90;;;;;;5055061;28;20045;-83
2021/12/10 03:41:41;;;;;;;33.65;16.45;;;4.10;99.90;;;;;;5090513;28;20161;-83
2021/12/10 03:44:07;;;;;;;28.42;14.35;;;4.10;99.90;;;;;;5065625;28;20041;-83
2021/12/10 03:46:33;;;;;;;27.35;14.00;;;4.10;99.90;;;;;;5079332;28;20036;-83
2021/12/10 03:49:03;;;;;;;22.33;14.13;;;4.10;99.90;;;;;;5088962;28;20059;-83
2021/12/10 03:51:29;;;;;;;20.52;13.35;;;4.00;99.90;;;;;;5085313;28;20052;-84
2021/12/10 03:53:55;;;;;;;22.52;11.68;;;3.90;99.90;;;;;;5073374;28;20044;-83
2021/12/10 03:56:23;;;;;;;19.00;12.48;;;4.00;99.90;;;;;;5072226;28;20521;-84
2021/12/10 03:58:49;;;;;;;31.33;13.38;;;3.90;99.90;;;;;;5068893;28;20176;-84
2021/12/10 04:01:19;;;;;;;58.58;14.15;;;3.90;99.90;;;;;;5083374;28;20585;-82
2021/12/10 04:03:48;;;;;;;34.50;14.85;;;3.90;99.90;;;;;;5091748;28;20044;-82
2021/12/10 04:06:14;;;;;;;30.25;15.02;;;3.90;99.90;;;;;;5075234;28;20109;-77
2021/12/10 04:08:40;;;;;;;24.38;13.32;;;3.80;99.90;;;;;;5066719;28;20040;-83
2021/12/10 04:11:07;;;;;;;24.23;13.23;;;3.80;99.90;;;;;;5086611;28;20042;-82
2021/12/10 04:13:34;;;;;;;25.58;12.98;;;3.80;99.90;;;;;;5077242;28;20521;-83
2021/12/10 04:16:00;;;;;;;21.48;11.80;;;3.80;99.90;;;;;;5090718;28;20079;-82
2021/12/10 04:18:26;;;;;;;17.85;11.75;;;3.70;99.90;;;;;;5091588;28;20386;-83
2021/12/10 04:20:52;;;;;;;21.90;12.82;;;3.70;99.90;;;;;;5086052;28;20044;-82
2021/12/10 04:23:19;;;;;;;23.23;12.20;;;3.70;99.90;;;;;;5065737;28;20487;-81
2021/12/10 04:25:45;;;;;;;25.70;13.52;;;3.70;99.90;;;;;;5060947;28;20102;-83
2021/12/10 04:28:14;;;;;;;20.23;11.20;;;3.60;99.90;;;;;;5075979;28;20478;-83
2021/12/10 04:30:42;;;;;;;25.00;14.27;;;3.50;99.90;;;;;;5061273;28;20059;-85
2021/12/10 04:33:09;;;;;;;26.13;13.05;;;3.50;99.90;;;;;;5077284;28;20091;-85
2021/12/10 04:35:36;;;;;;;22.88;12.75;;;3.40;99.90;;;;;;5082921;28;20498;-82
2021/12/10 04:38:03;;;;;;;23.10;11.40;;;3.30;99.90;;;;;;5081861;28;20124;-78
2021/12/10 04:40:29;;;;;;;21.42;14.25;;;3.30;99.90;;;;;;5091803;28;20047;-82
2021/12/10 04:42:56;;;;;;;21.52;12.45;;;3.20;99.90;;;;;;5079443;28;20032;-82
2021/12/10 04:45:21;;;;;;;18.20;11.45;;;3.20;99.90;;;;;;5068519;28;20455;-82
2021/12/10 04:47:48;;;;;;;23.42;12.48;;;3.10;99.90;;;;;;5062805;28;20048;-83
2021/12/10 04:50:17;;;;;;;24.52;13.15;;;3.00;99.90;;;;;;5073950;28;20041;-79
2021/12/10 04:52:42;;;;;;;20.90;12.48;;;3.00;99.90;;;;;;5083743;28;20051;-75
2021/12/10 04:55:11;;;;;;;19.85;12.38;;;3.00;99.90;;;;;;5086935;28;20398;-82
2021/12/10 04:57:38;;;;;;;27.10;12.38;;;3.00;99.90;;;;;;5072195;28;20054;-83
2021/12/10 05:00:07;;;;;;;20.95;11.70;;;2.90;99.90;;;;;;5072487;28;20040;-85
2021/12/10 05:02:35;;;;;;;20.60;12.70;;;2.90;99.90;;;;;;5077079;28;20055;-84
2021/12/10 05:05:01;;;;;;;28.02;13.20;;;2.80;99.90;;;;;;5068371;28;20071;-83
2021/12/10 05:07:30;;;;;;;21.17;12.13;;;2.80;99.90;;;;;;5067221;28;20478;-81
2021/12/10 05:09:56;;;;;;;20.83;12.30;;;2.80;99.90;;;;;;5039021;28;20477;-83
2021/12/10 05:12:22;;;;;;;22.38;11.77;;;2.80;99.90;;;;;;5055209;28;20053;-83
2021/12/10 05:14:48;;;;;;;18.10;12.43;;;2.80;99.90;;;;;;5059640;28;20055;-82
2021/12/10 05:17:14;;;;;;;20.05;12.90;;;2.70;99.90;;;;;;5072075;28;20429;-80
2021/12/10 05:19:42;;;;;;;16.17;11.30;;;2.70;99.90;;;;;;5072104;28;20039;-83
2021/12/10 05:22:12;;;;;;;23.48;14.05;;;2.70;99.90;;;;;;5085723;28;20078;-83
2021/12/10 05:24:38;;;;;;;20.65;13.77;;;2.70;99.90;;;;;;5086897;28;20074;-83
2021/12/10 05:27:04;;;;;;;24.52;13.85;;;2.70;99.90;;;;;;5080992;28;20037;-82
2021/12/10 05:29:30;;;;;;;21.88;14.35;;;2.60;99.90;;;;;;5060732;28;20376;-83
2021/12/10 05:31:58;;;;;;;26.13;15.00;;;2.60;99.90;;;;;;5069640;28;20044;-81
2021/12/10 05:34:24;;;;;;;22.13;14.27;;;2.50;99.90;;;;;;5082306;28;20045;-82
2021/12/10 05:36:50;;;;;;;27.02;18.92;;;2.50;99.90;;;;;;5078180;28;21028;-82
2021/12/10 05:39:17;;;;;;;26.83;16.70;;;2.60;99.90;;;;;;5077098;28;20037;-81
2021/12/10 05:41:44;;;;;;;26.60;16.90;;;2.50;99.90;;;;;;5076448;28;20178;-81
2021/12/10 05:44:09;;;;;;;29.20;17.10;;;2.50;99.90;;;;;;5068077;28;20045;-83
2021/12/10 05:46:37;;;;;;;25.65;17.08;;;2.60;99.90;;;;;;5057609;28;20079;-81
2021/12/10 05:49:04;;;;;;;25.08;17.08;;;2.40;99.90;;;;;;5081740;28;20055;-80
2021/12/10 05:51:30;;;;;;;27.48;18.63;;;2.50;99.90;;;;;;5088124;28;20098;-80
2021/12/10 05:53:55;;;;;;;31.48;16.67;;;2.50;99.90;;;;;;5082884;28;20117;-81
2021/12/10 05:56:21;;;;;;;24.67;17.17;;;2.50;99.90;;;;;;5068284;28;20044;-83
2021/12/10 05:58:47;;;;;;;34.08;16.98;;;2.50;99.90;;;;;;5061309;28;20048;-82
2021/12/10 06:01:16;;;;;;;29.65;17.25;;;2.50;99.90;;;;;;5066744;28;20052;-74
2021/12/10 06:03:51;;;;;;;31.05;19.13;;;2.40;99.90;;;;;;5070749;28;20054;-82
2021/12/10 06:06:18;;;;;;;28.98;18.40;;;2.40;99.90;;;;;;5060346;28;20040;-82
2021/12/10 06:08:44;;;;;;;26.25;17.63;;;2.40;99.90;;;;;;5072458;28;20036;-82
2021/12/10 06:11:09;;;;;;;30.60;20.63;;;2.40;99.90;;;;;;5077638;28;20404;-81
2021/12/10 06:13:35;;;;;;;26.52;19.17;;;2.40;99.90;;;;;;5089693;28;20040;-81
2021/12/10 06:16:02;;;;;;;29.92;19.42;;;2.40;99.90;;;;;;5087737;28;20043;-83
2021/12/10 06:18:28;;;;;;;26.55;19.02;;;2.40;99.90;;;;;;5089815;28;20043;-84
2021/12/10 06:20:55;;;;;;;34.25;19.13;;;2.30;99.90;;;;;;5077893;28;20401;-76
2021/12/10 06:23:21;;;;;;;31.58;19.17;;;2.30;99.90;;;;;;5081637;28;20426;-85
2021/12/10 06:25:47;;;;;;;30.40;22.40;;;2.30;99.90;;;;;;5076146;28;20040;-85
2021/12/10 06:28:13;;;;;;;29.50;18.58;;;2.20;99.90;;;;;;5087641;28;20036;-81
2021/12/10 06:30:42;;;;;;;31.17;20.73;;;2.30;99.90;;;;;;5088914;28;20492;-85
2021/12/10 06:33:11;;;;;;;30.13;20.13;;;2.20;99.90;;;;;;5061213;28;20040;-85
2021/12/10 06:35:39;;;;;;;33.92;22.13;;;2.20;99.90;;;;;;5065836;28;20376;-85
2021/12/10 06:38:06;;;;;;;31.05;20.63;;;2.10;99.90;;;;;;5069219;28;20493;-84
2021/12/10 06:40:34;;;;;;;30.52;20.08;;;2.10;99.90;;;;;;5071415;28;20398;-85
2021/12/10 06:43:01;;;;;;;31.25;20.92;;;2.00;99.90;;;;;;5044664;28;20502;-84
2021/12/10 06:45:29;;;;;;;27.02;19.35;;;2.10;99.90;;;;;;5035470;28;20367;-83
2021/12/10 06:47:58;;;;;;;24.08;19.00;;;1.90;99.90;;;;;;5069877;28;20498;-85
2021/12/10 06:50:26;;;;;;;24.10;18.93;;;2.00;99.90;;;;;;5072186;28;20491;-85
2021/12/10 06:52:54;;;;;;;25.98;19.10;;;2.00;99.90;;;;;;5071410;28;20041;-85
2021/12/10 06:55:20;;;;;;;33.42;20.35;;;1.90;99.90;;;;;;5068495;28;20130;-77
2021/12/10 06:57:45;;;;;;;29.13;17.70;;;2.10;99.90;;;;;;5058734;28;20048;-83
2021/12/10 07:00:22;;;;;;;22.42;18.02;;;1.90;99.90;;;;;;5074982;28;20080;-82
2021/12/10 07:02:48;;;;;;;24.77;16.38;;;1.90;99.90;;;;;;5079822;28;20036;-82
2021/12/10 07:05:14;;;;;;;24.48;16.10;;;1.90;99.90;;;;;;5072071;28;20071;-75
2021/12/10 07:07:40;;;;;;;26.05;17.25;;;1.90;99.90;;;;;;5082216;28;20044;-79
2021/12/10 07:10:07;;;;;;;23.88;16.88;;;1.80;99.90;;;;;;5059685;28;20063;-82
2021/12/10 07:12:37;;;;;;;22.63;15.93;;;1.90;99.90;;;;;;5067812;28;20562;-82
2021/12/10 07:15:08;;;;;;;22.42;15.63;;;1.80;99.90;;;;;;5070921;28;20098;-83
2021/12/10 07:17:34;;;;;;;21.30;15.85;;;1.90;99.90;;;;;;5064362;28;20481;-82
2021/12/10 07:19:59;;;;;;;24.90;16.27;;;1.80;99.90;;;;;;5074133;28;20052;-78
2021/12/10 07:22:25;;;;;;;23.45;15.50;;;1.80;99.90;;;;;;5071987;28;20084;-79
2021/12/10 07:24:51;;;;;;;24.38;16.40;;;1.80;99.90;;;;;;5058906;28;20055;-80
2021/12/10 07:27:16;;;;;;;24.45;14.25;;;1.80;99.90;;;;;;5090365;28;20036;-79
2021/12/10 07:29:43;;;;;;;18.48;14.00;;;1.70;99.90;;;;;;5072393;28;20135;-79
2021/12/10 07:32:09;;;;;;;18.35;14.23;;;1.80;99.90;;;;;;5070225;28;20060;-79
2021/12/10 07:34:35;;;;;;;23.67;15.63;;;1.80;99.90;;;;;;5067346;28;20513;-80
2021/12/10 07:37:00;;;;;;;23.35;14.60;;;1.60;99.90;;;;;;5087310;28;20138;-81
2021/12/10 07:39:27;;;;;;;22.88;14.85;;;1.70;99.90;;;;;;5078777;28;20047;-80
2021/12/10 07:41:53;;;;;;;19.40;14.23;;;1.60;99.90;;;;;;5076156;28;20433;-81
2021/12/10 07:44:19;;;;;;;19.92;14.23;;;1.60;99.90;;;;;;5088304;28;20165;-81
2021/12/10 07:46:45;;;;;;;17.77;11.68;;;1.70;99.90;;;;;;5079187;28;20136;-83
2021/12/10 07:49:16;;;;;;;27.67;16.30;;;1.60;99.90;;;;;;5060759;28;20040;-81
2021/12/10 07:51:49;;;;;;;18.63;12.85;;;1.60;99.90;;;;;;5069148;28;20036;-82
2021/12/10 07:54:16;;;;;;;20.42;14.25;;;1.60;99.90;;;;;;5081977;28;20048;-75
2021/12/10 07:56:42;;;;;;;24.77;14.15;;;1.60;99.90;;;;;;5087720;28;20392;-84
2021/12/10 07:59:07;;;;;;;16.65;12.52;;;1.60;99.90;;;;;;5087485;28;20040;-86
2021/12/10 08:01:33;;;;;;;19.20;14.75;;;1.60;99.90;;;;;;5049305;28;20048;-87
2021/12/10 08:04:01;;;;;;;14.82;11.18;;;1.70;99.90;;;;;;5087577;28;20032;-83
2021/12/10 08:06:30;;;;;;;19.58;11.52;;;1.60;99.90;;;;;;5087432;28;20048;-86
2021/12/10 08:08:56;;;;;;;18.20;11.95;;;1.60;99.90;;;;;;5055692;28;20040;-84
2021/12/10 08:11:23;;;;;;;21.60;11.60;;;1.60;99.90;;;;;;5070473;28;20048;-79
2021/12/10 08:13:49;;;;;;;16.73;10.85;;;1.60;99.90;;;;;;5086280;28;20052;-79
2021/12/10 08:16:16;;;;;;;19.73;11.50;;;1.70;99.90;;;;;;5085046;28;20055;-76
2021/12/10 08:18:42;;;;;;;15.00;11.50;;;1.70;99.90;;;;;;5051343;28;20048;-80
2021/12/10 08:21:08;;;;;;;17.73;11.43;;;1.70;99.90;;;;;;5070413;28;20058;-80
2021/12/10 08:23:37;;;;;;;16.08;12.00;;;1.70;99.90;;;;;;5079053;28;20538;-79
2021/12/10 08:26:04;;;;;;;22.40;10.18;;;1.80;99.90;;;;;;5064454;28;20209;-80
2021/12/10 08:28:32;;;;;;;24.67;13.13;;;1.80;99.90;;;;;;5054902;28;20520;-83
2021/12/10 08:30:58;;;;;;;17.40;10.35;;;1.80;99.90;;;;;;5088638;28;20432;-83
2021/12/10 08:33:24;;;;;;;12.98;9.77;;;1.90;99.90;;;;;;5077983;28;20049;-84
2021/12/10 08:35:55;;;;;;;14.65;10.98;;;1.80;99.90;;;;;;5087516;28;20052;-84
2021/12/10 08:38:21;;;;;;;15.35;10.35;;;1.90;99.90;;;;;;5076743;28;20044;-81
2021/12/10 08:40:54;;;;;;;13.00;8.85;;;2.00;99.90;;;;;;5077281;28;20044;-87
2021/12/10 08:43:21;;;;;;;17.58;9.65;;;2.00;99.90;;;;;;5074669;28;20048;-86
2021/12/10 08:45:47;;;;;;;14.55;9.55;;;2.00;99.90;;;;;;5071209;28;20036;-84
2021/12/10 08:48:12;;;;;;;12.88;8.48;;;2.00;99.90;;;;;;5087865;28;20059;-76
2021/12/10 08:50:41;;;;;;;12.85;9.02;;;2.00;99.90;;;;;;5076283;28;20066;-81
2021/12/10 08:53:14;;;;;;;16.15;8.93;;;2.10;99.90;;;;;;5074998;28;20086;-81
2021/12/10 08:55:50;;;;;;;20.67;10.40;;;2.10;99.90;;;;;;5090198;28;20044;-81
2021/12/10 08:58:16;;;;;;;14.93;8.98;;;2.20;99.90;;;;;;5071975;28;20106;-80
2021/12/10 09:00:49;;;;;;;17.85;7.97;;;2.20;99.90;;;;;;5058065;28;20542;-82
2021/12/10 09:03:15;;;;;;;12.38;7.47;;;2.30;99.90;;;;;;5064573;28;20060;-77
2021/12/10 09:05:41;;;;;;;14.77;9.15;;;2.30;99.90;;;;;;5091517;28;20051;-81
2021/12/10 09:08:08;;;;;;;9.02;7.15;;;2.30;99.90;;;;;;5039681;28;20438;-82
2021/12/10 09:10:37;;;;;;;14.35;8.57;;;2.30;99.90;;;;;;5066682;28;20048;-81
2021/12/10 09:13:12;;;;;;;14.25;8.43;;;2.30;99.90;;;;;;5092573;28;20052;-82
2021/12/10 09:15:40;;;;;;;11.43;8.32;;;2.40;99.90;;;;;;5068935;28;20410;-81
2021/12/10 09:18:08;;;;;;;14.73;8.93;;;2.50;99.90;;;;;;5084769;28;20044;-82
2021/12/10 09:20:40;;;;;;;16.98;7.88;;;2.50;99.90;;;;;;5072482;28;20044;-84
2021/12/10 09:23:12;;;;;;;13.68;8.13;;;2.50;99.90;;;;;;5073761;28;20079;-81
2021/12/10 09:25:39;;;;;;;14.98;7.90;;;2.60;99.90;;;;;;5085149;28;20048;-82
2021/12/10 09:28:05;;;;;;;14.07;6.93;;;2.60;99.90;;;;;;5071729;28;20430;-82
2021/12/10 09:30:32;;;;;;;16.88;7.20;;;2.60;99.90;;;;;;5070124;28;20450;-83
2021/12/10 09:32:59;;;;;;;11.77;7.32;;;2.70;99.90;;;;;;5083635;28;20058;-81
2021/12/10 09:35:27;;;;;;;12.40;7.60;;;2.70;99.90;;;;;;5086355;28;20405;-81
2021/12/10 09:37:53;;;;;;;12.73;7.70;;;2.70;99.90;;;;;;5089378;28;20040;-80
2021/12/10 09:40:24;;;;;;;9.43;6.65;;;2.80;99.90;;;;;;5089908;28;20047;-81
2021/12/10 09:42:50;;;;;;;14.00;8.13;;;2.90;99.90;;;;;;5089037;28;20047;-81
2021/12/10 09:45:24;;;;;;;11.02;7.70;;;2.80;99.90;;;;;;5087904;28;20425;-81
2021/12/10 09:47:50;;;;;;;16.48;8.50;;;2.80;99.90;;;;;;5072648;28;20044;-80
2021/12/10 09:50:18;;;;;;;16.92;7.25;;;2.90;99.90;;;;;;5081609;28;20461;-79
2021/12/10 09:52:44;;;;;;;14.45;8.25;;;2.90;99.90;;;;;;5066714;28;20083;-76
2021/12/10 09:55:13;;;;;;;14.43;8.40;;;3.10;99.90;;;;;;5067126;28;20386;-79
2021/12/10 09:57:40;;;;;;;9.77;6.60;;;3.10;99.90;;;;;;5061584;28;20145;-78
2021/12/10 10:00:15;;;;;;;15.68;7.35;;;3.10;99.90;;;;;;5052688;28;20044;-78
2021/12/10 10:02:41;;;;;;;11.13;7.28;;;3.10;99.90;;;;;;5089034;28;20047;-79
2021/12/10 10:05:08;;;;;;;13.20;7.40;;;3.20;99.90;;;;;;5044955;28;20048;-79
2021/12/10 10:07:37;;;;;;;14.02;7.60;;;3.20;99.90;;;;;;5059179;28;20093;-79
2021/12/10 10:10:10;;;;;;;11.00;6.72;;;3.20;99.90;;;;;;5089228;28;20104;-78
2021/12/10 10:12:39;;;;;;;10.65;6.57;;;3.30;99.90;;;;;;5050049;28;20559;-79
2021/12/10 10:15:09;;;;;;;11.70;6.78;;;3.30;99.90;;;;;;5071009;28;20052;-80
2021/12/10 10:17:36;;;;;;;13.50;6.93;;;3.40;99.90;;;;;;5071354;28;20134;-80
2021/12/10 10:20:03;;;;;;;11.55;6.70;;;3.40;99.90;;;;;;5071806;28;20106;-79
2021/12/10 10:22:32;;;;;;;16.20;7.22;;;3.40;99.90;;;;;;5054779;28;20044;-77
2021/12/10 10:24:59;;;;;;;9.13;5.60;;;3.50;99.90;;;;;;5076309;28;20119;-78
2021/12/10 10:27:28;;;;;;;11.50;6.70;;;3.50;99.90;;;;;;5068617;28;20083;-80
2021/12/10 10:30:06;;;;;;;9.82;6.03;;;3.50;99.90;;;;;;5068720;28;20052;-77
2021/12/10 10:32:34;;;;;;;13.93;4.90;;;3.60;99.90;;;;;;5088688;28;20051;-79
2021/12/10 10:35:08;;;;;;;17.83;7.63;;;3.60;99.90;;;;;;5084944;28;20127;-77
2021/12/10 10:37:35;;;;;;;9.40;5.97;;;3.70;99.90;;;;;;5080342;28;20093;-77
2021/12/10 10:40:06;;;;;;;17.88;6.32;;;3.70;99.90;;;;;;5092457;28;20054;-78
2021/12/10 10:42:32;;;;;;;12.70;6.50;;;3.70;99.90;;;;;;5078098;28;20070;-77
2021/12/10 10:45:03;;;;;;;11.32;5.03;;;3.80;99.90;;;;;;5076223;28;20177;-77
2021/12/10 10:47:29;;;;;;;11.45;6.60;;;3.80;99.90;;;;;;5082731;28;20486;-77
2021/12/10 10:50:11;;;;;;;10.35;5.28;;;3.80;99.90;;;;;;5069936;28;20052;-77
2021/12/10 10:52:39;;;;;;;11.25;5.25;;;3.90;99.90;;;;;;5090753;28;20036;-78
2021/12/10 10:55:11;;;;;;;12.68;5.95;;;4.10;99.90;;;;;;5064929;28;20036;-78
2021/12/10 10:57:57;;;;;;;9.90;6.00;;;4.10;99.90;;;;;;5051241;28;20127;-79
2021/12/10 11:00:33;;;;;;;9.95;5.10;;;4.10;99.90;;;;;;5051471;28;20051;-78
2021/12/10 11:03:04;;;;;;;13.77;5.07;;;4.20;99.90;;;;;;5041136;28;20512;-78
2021/12/10 11:05:32;;;;;;;8.38;5.38;;;4.20;99.90;;;;;;5067370;28;20055;-78
2021/12/10 11:08:01;;;;;;;9.43;4.85;;;4.20;99.90;;;;;;5070439;28;20040;-78
2021/12/10 11:10:33;;;;;;;12.95;5.50;;;4.30;99.90;;;;;;5068450;28;20441;-78
2021/12/10 11:13:14;;;;;;;9.55;5.15;;;4.30;99.90;;;;;;5066637;28;20058;-78
2021/12/10 11:16:00;;;;;;;10.10;4.80;;;4.20;99.90;;;;;;5054502;28;20513;-78
2021/12/10 11:18:27;;;;;;;8.20;4.88;;;4.30;99.90;;;;;;5088490;28;20128;-78
2021/12/10 11:20:52;;;;;;;6.70;4.55;;;4.20;99.90;;;;;;5087812;28;20054;-78
2021/12/10 11:23:24;;;;;;;5.95;4.45;;;4.20;99.90;;;;;;5068730;28;20056;-77
2021/12/10 11:25:53;;;;;;;9.50;6.15;;;4.20;99.90;;;;;;5066158;28;20071;-77
2021/12/10 11:28:26;;;;;;;11.38;5.90;;;4.20;99.90;;;;;;5087367;28;20086;-77
2021/12/10 11:31:04;;;;;;;10.23;4.78;;;4.20;99.90;;;;;;5088096;28;20040;-77
2021/12/10 11:33:34;;;;;;;6.78;4.50;;;4.20;99.90;;;;;;5068674;28;20379;-77
2021/12/10 11:36:05;;;;;;;5.68;3.60;;;4.30;99.90;;;;;;5068956;28;20105;-77
2021/12/10 11:38:33;;;;;;;7.68;4.78;;;4.30;99.90;;;;;;5069928;28;20044;-79
2021/12/10 11:41:15;;;;;;;12.80;4.78;;;4.30;99.90;;;;;;5085574;28;20044;-77
2021/12/10 11:44:18;;;;;;;12.90;4.78;;;4.20;99.90;;;;;;5068266;28;20058;-77
2021/12/10 11:47:02;;;;;;;7.07;4.38;;;4.20;99.90;;;;;;5075930;28;20048;-77
2021/12/10 11:49:33;;;;;;;7.20;4.28;;;4.20;99.90;;;;;;5070710;28;20056;-77
2021/12/10 11:52:16;;;;;;;9.13;4.88;;;4.10;99.90;;;;;;5070453;28;20170;-79
2021/12/10 11:54:55;;;;;;;10.07;5.30;;;4.20;99.90;;;;;;5087311;28;20182;-78
2021/12/10 11:57:31;;;;;;;11.23;4.82;;;4.20;99.90;;;;;;5078232;28;20478;-80
2021/12/10 12:00:33;;;;;;;9.52;4.88;;;4.20;99.90;;;;;;5057633;28;20071;-78
2021/12/10 12:03:05;;;;;;;6.47;4.25;;;4.20;99.90;;;;;;5049002;28;20066;-78
2021/12/10 12:05:38;;;;;;;9.60;4.90;;;4.20;99.90;;;;;;5072877;28;20048;-73
2021/12/10 12:08:08;;;;;;;7.57;3.50;;;4.30;99.90;;;;;;5056505;28;20090;-75
2021/12/10 12:10:40;;;;;;;6.43;3.78;;;4.30;99.90;;;;;;5082854;28;20780;-80
2021/12/10 12:13:23;;;;;;;10.38;4.30;;;4.40;99.90;;;;;;5056754;28;20143;-80
2021/12/10 12:16:14;;;;;;;9.68;4.07;;;4.40;99.90;;;;;;5064106;28;20127;-79
2021/12/10 12:18:46;;;;;;;9.75;4.15;;;4.50;99.90;;;;;;5078846;28;20086;-80
2021/12/10 12:21:37;;;;;;;12.18;4.80;;;4.50;99.90;;;;;;5073056;28;20804;-77
2021/12/10 12:27:19;;;;;;;9.57;5.07;;;4.50;99.90;;;;;;5058291;28;19920;-79
2021/12/10 12:29:47;;;;;;;9.15;4.45;;;4.50;99.90;;;;;;5063469;28;20122;-79
2021/12/10 12:32:16;;;;;;;9.77;4.20;;;4.50;99.90;;;;;;5057370;28;20044;-75
2021/12/10 12:34:42;;;;;;;11.55;4.78;;;4.50;99.90;;;;;;5072166;28;20048;-78
2021/12/10 12:37:10;;;;;;;10.65;4.22;;;4.50;99.90;;;;;;5063324;28;20063;-80
2021/12/10 12:39:37;;;;;;;9.45;4.70;;;4.50;99.90;;;;;;5066705;28;20050;-80
2021/12/10 12:42:24;;;;;;;7.10;4.78;;;4.60;99.90;;;;;;5074562;28;20422;-80
2021/12/10 12:45:00;;;;;;;7.95;4.63;;;4.60;99.90;;;;;;5060045;28;20036;-81
2021/12/10 12:47:27;;;;;;;9.25;3.72;;;4.70;99.90;;;;;;5076260;28;20047;-80
2021/12/10 12:50:16;;;;;;;10.15;5.75;;;4.60;99.90;;;;;;5086064;28;20181;-81
2021/12/10 12:52:53;;;;;;;7.45;4.20;;;4.60;99.90;;;;;;5069673;28;20044;-80
2021/12/10 12:55:29;;;;;;;10.45;3.85;;;4.60;99.90;;;;;;5072617;28;20049;-80
2021/12/10 12:57:54;;;;;;;8.57;4.80;;;4.60;99.90;;;;;;5052487;28;20059;-80
2021/12/10 13:00:32;;;;;;;14.90;6.43;;;4.60;99.90;;;;;;5080855;28;20491;-81
2021/12/10 13:03:15;;;;;;;7.88;4.15;;;4.50;99.90;;;;;;5072392;28;20084;-80